Time;durP1;ratioP1;P1;durP2;ratioP2;P2;SDS_P1;SDS_P2;PMS_P1;PMS_P2;Temp;Humidity;BMP_temperature;BMP_pressure;BME280_temperature;BME280_humidity;BME280_pressure;Samples;Min_cycle;Max_cycle;Signal;HPM_P1;HPM_P2
2022/08/16 00:02:38;;;;;;;;;6.00;5.50;;;;;25.77;50.55;100432.03;146608;569;45020;-72
2022/08/16 00:05:36;;;;;;;;;5.00;5.00;;;;;25.73;51.03;100440.06;146602;605;46014;-72
2022/08/16 00:08:35;;;;;;;;;8.25;8.25;;;;;25.74;51.43;100439.16;146607;655;45020;-71
2022/08/16 00:11:31;;;;;;;;;8.75;8.50;;;;;25.64;52.11;100443.75;146603;569;45914;-71
2022/08/16 00:14:34;;;;;;;;;7.25;7.25;;;;;25.50;51.53;100459.00;146605;604;46010;-70
2022/08/16 00:17:30;;;;;;;;;8.00;5.75;;;;;25.46;52.31;100463.47;146602;738;45914;-71
2022/08/16 00:20:28;;;;;;;;;7.00;7.00;;;;;25.42;52.31;100466.16;146605;583;46014;-70
2022/08/16 00:23:25;;;;;;;;;7.00;7.00;;;;;25.27;52.13;100468.16;146602;619;46012;-72
2022/08/16 00:26:17;;;;;;;;;8.25;7.25;;;;;25.15;53.41;100467.44;146605;722;46015;-72
2022/08/16 00:29:12;;;;;;;;;8.50;7.75;;;;;24.98;53.89;100459.62;146602;628;46012;-71
2022/08/16 00:32:23;;;;;;;;;8.25;8.25;;;;;24.84;52.52;100473.94;146603;660;46014;-71
2022/08/16 00:35:26;;;;;;;;;7.50;7.50;;;;;24.80;53.70;100469.59;146603;606;45912;-71
2022/08/16 00:38:19;;;;;;;;;8.67;8.00;;;;;24.77;53.66;100474.91;146608;595;45028;-71
2022/08/16 00:41:20;;;;;;;;;8.75;7.25;;;;;24.76;53.57;100470.50;146602;590;45913;-70
2022/08/16 00:44:17;;;;;;;;;6.50;6.00;;;;;24.87;53.25;100463.31;146605;577;46010;-70
2022/08/16 00:47:31;;;;;;;;;9.00;8.00;;;;;25.01;52.60;100456.94;146603;564;45912;-71
2022/08/16 00:50:41;;;;;;;;;;;;;;;;;;;;;
2022/08/16 00:53:35;;;;;;;;;7.50;7.50;;;;;24.97;52.74;100457.87;146603;724;45910;-71
2022/08/16 00:56:40;;;;;;;;;8.00;6.00;;;;;24.97;52.34;100457.87;146604;598;45021;-70
2022/08/16 00:59:42;;;;;;;;;7.25;5.75;;;;;24.95;52.41;100455.25;146603;650;45912;-71
2022/08/16 01:02:45;;;;;;;;;7.75;6.25;;;;;25.03;53.29;100457.81;146605;681;45021;-70
2022/08/16 01:05:42;;;;;;;;;7.50;7.50;;;;;25.16;52.19;100461.22;146602;712;45913;-71
2022/08/16 01:09:05;;;;;;;;;7.75;7.00;;;;;25.21;51.99;100454.09;146607;646;45020;-71
2022/08/16 01:12:20;;;;;;;;;8.50;8.50;;;;;25.27;52.68;100470.81;146602;718;46012;-70
2022/08/16 01:15:29;;;;;;;;;8.50;7.50;;;;;25.37;52.73;100481.31;146607;656;45020;-70
2022/08/16 01:18:36;;;;;;;;;6.00;6.00;;;;;25.27;53.31;100481.41;146600;569;46013;-70
2022/08/16 01:21:57;;;;;;;;;5.50;5.50;;;;;25.10;52.60;100493.97;146605;631;45020;-72
2022/08/16 01:25:04;;;;;;;;;7.00;6.50;;;;;24.96;53.35;100498.59;146603;700;45912;-71
2022/08/16 01:28:04;;;;;;;;;6.25;6.00;;;;;24.93;53.04;100501.28;146606;577;46010;-71
2022/08/16 01:31:04;;;;;;;;;6.00;6.00;;;;;24.96;53.06;100494.16;146600;591;46012;-71
2022/08/16 01:34:00;;;;;;;;;8.00;6.00;;;;;24.96;53.43;100485.31;146603;604;46011;-71
2022/08/16 01:37:02;;;;;;;;;8.50;7.25;;;;;24.95;53.20;100486.19;146603;622;45912;-72
2022/08/16 01:39:57;;;;;;;;;6.00;6.00;;;;;24.88;53.43;100485.41;146606;632;45020;-70
2022/08/16 01:43:11;;;;;;;;;6.25;6.25;;;;;24.87;53.80;100475.69;146603;590;45913;-70
2022/08/16 01:46:28;;;;;;;;;6.00;5.25;;;;;24.89;53.83;100479.19;146604;721;46010;-70
2022/08/16 01:49:42;;;;;;;;;5.50;5.50;;;;;25.03;53.13;100482.56;146603;569;45912;-70
2022/08/16 01:53:00;;;;;;;;;;;;;;;;;;;;;
2022/08/16 01:56:03;;;;;;;;;5.33;5.33;;;;;25.28;52.94;100479.62;146604;629;45910;-71
2022/08/16 01:59:28;;;;;;;;;7.75;6.25;;;;;25.34;52.15;100488.41;146607;646;45020;-71
2022/08/16 02:02:42;;;;;;;;;8.25;8.25;;;;;25.44;51.87;100504.19;146603;640;45910;-71
2022/08/16 02:05:46;;;;;;;;;7.25;6.50;;;;;25.49;52.20;100515.66;146603;699;46010;-70
2022/08/16 02:08:45;;;;;;;;;7.00;7.00;;;;;25.52;52.62;100512.94;146603;705;45912;-71
2022/08/16 02:11:40;;;;;;;;;8.75;7.75;;;;;25.37;53.01;100518.47;146606;627;46011;-72
2022/08/16 02:14:42;;;;;;;;;7.75;7.75;;;;;25.18;52.88;100524.00;146602;707;46912;-72
2022/08/16 02:17:40;;;;;;;;;7.25;7.25;;;;;25.07;53.31;100528.50;146607;574;45021;-71
2022/08/16 02:20:49;;;;;;;;;11.00;8.00;;;;;25.06;53.42;100524.09;146603;637;45912;-72
2022/08/16 02:23:49;;;;;;;;;10.75;8.00;;;;;25.12;53.26;100527.59;146602;601;46010;-71
2022/08/16 02:26:43;;;;;;;;;8.00;7.25;;;;;25.16;53.56;100531.09;146602;625;45913;-72
2022/08/16 02:29:39;;;;;;;;;8.00;8.00;;;;;25.14;53.59;100526.69;146607;578;45020;-71
2022/08/16 02:32:46;;;;;;;;;8.00;7.75;;;;;25.04;53.74;100517.94;146597;631;47912;-72
2022/08/16 02:35:38;;;;;;;;;6.25;6.25;;;;;24.91;54.09;100513.66;146605;566;45020;-70
2022/08/16 02:38:43;;;;;;;;;9.00;8.00;;;;;24.83;54.02;100506.69;146604;657;45913;-70
2022/08/16 02:42:03;;;;;;;;;7.75;7.00;;;;;23.87;53.13;100344.19;146608;687;45021;-70
2022/08/16 02:44:59;;;;;;;;;9.50;8.50;;;;;24.77;54.18;100503.22;146603;599;45910;-70
2022/08/16 02:48:04;;;;;;;;;;;;;;;;;;;;;
2022/08/16 02:50:58;;;;;;;;;8.25;7.75;;;;;24.73;54.42;100491.72;146603;626;45909;-71
2022/08/16 02:53:58;;;;;;;;;9.00;9.00;;;;;24.73;53.92;100504.13;146606;569;46010;-73
2022/08/16 02:56:54;;;;;;;;;4.75;4.75;;;;;24.73;53.86;100494.37;146603;573;45913;-70
2022/08/16 03:00:01;;;;;;;;;8.50;8.00;;;;;24.72;54.50;100495.28;146606;602;46020;-71
2022/08/16 03:03:00;;;;;;;;;8.75;8.25;;;;;24.82;54.46;100494.28;146603;622;45912;-70
2022/08/16 03:05:53;;;;;;;;;5.75;5.75;;;;;24.95;53.70;100494.16;146606;627;45020;-71
2022/08/16 03:09:02;;;;;;;;;6.50;6.25;;;;;23.96;53.09;100319.41;146602;690;45912;-70
2022/08/16 03:12:04;;;;;;;;;5.75;5.75;;;;;24.89;54.08;100482.75;146607;585;45020;-71
2022/08/16 03:15:00;;;;;;;;;8.00;6.00;;;;;24.79;55.03;100478.41;146601;668;46014;-71
2022/08/16 03:18:05;;;;;;;;;9.00;7.25;;;;;24.61;55.70;100481.25;146607;575;45021;-71
2022/08/16 03:21:06;;;;;;;;;8.75;7.25;;;;;24.42;55.54;100477.91;146601;631;47912;-72
2022/08/16 03:23:59;;;;;;;;;9.25;9.00;;;;;24.30;56.63;100473.59;146604;606;46010;-71
2022/08/16 03:27:02;;;;;;;;;10.00;10.00;;;;;24.17;56.42;100475.47;146599;607;46012;-69
2022/08/16 03:29:54;;;;;;;;;7.75;7.25;;;;;24.03;57.25;100480.00;146606;616;45020;-71
2022/08/16 03:33:05;;;;;;;;;7.75;7.50;;;;;23.93;56.65;100488.91;146603;609;45913;-71
2022/08/16 03:36:06;;;;;;;;;8.25;7.00;;;;;23.87;57.67;100491.59;146605;704;46010;-71
2022/08/16 03:39:08;;;;;;;;;9.00;8.75;;;;;23.79;57.35;100502.22;146601;578;46015;-72
2022/08/16 03:42:08;;;;;;;;;11.50;9.00;;;;;23.69;58.70;100496.09;146608;627;45020;-73
2022/08/16 03:45:06;;;;;;;;;10.50;9.50;;;;;23.61;58.43;100503.16;146603;608;45883;-72
2022/08/16 03:48:05;;;;;;;;;9.25;9.25;;;;;23.57;57.54;100505.84;146605;576;45021;-69
2022/08/16 03:51:10;;;;;;;;;8.00;7.50;;;;;23.63;57.49;100505.81;146603;627;45912;-70
2022/08/16 03:54:05;;;;;;;;;7.75;7.75;;;;;23.66;57.85;100511.97;146608;590;45021;-70
2022/08/16 03:56:58;;;;;;;;;10.75;10.00;;;;;23.67;58.24;100504.91;146603;645;45916;-69
2022/08/16 03:59:54;;;;;;;;;9.00;8.00;;;;;23.68;57.30;100504.03;146605;578;45020;-69
2022/08/16 04:03:01;;;;;;;;;9.50;9.00;;;;;23.70;57.69;100512.88;146602;605;46012;-71
2022/08/16 04:06:09;;;;;;;;;7.00;6.50;;;;;22.71;56.27;100352.84;146605;577;45020;-72
2022/08/16 04:09:14;;;;;;;;;8.50;7.25;;;;;23.69;56.75;100509.34;146602;673;45914;-71
2022/08/16 04:12:08;;;;;;;;;10.25;9.75;;;;;23.82;57.65;100507.50;146607;676;45020;-71
2022/08/16 04:15:16;;;;;;;;;9.50;7.25;;;;;22.92;56.26;100336.00;146603;565;45914;-71
2022/08/16 04:18:24;;;;;;;;;8.25;8.25;;;;;23.55;55.82;100418.53;146608;648;46010;-71
2022/08/16 04:21:16;;;;;;;;;8.00;8.00;;;;;24.18;56.48;100510.78;146601;569;46014;-71
2022/08/16 04:24:12;;;;;;;;;9.00;8.00;;;;;24.28;56.20;100512.47;146606;564;45021;-71
2022/08/16 04:27:08;;;;;;;;;8.00;7.50;;;;;24.30;55.97;100513.34;146603;582;45914;-70
2022/08/16 04:30:26;;;;;;;;;8.00;7.50;;;;;24.34;55.45;100519.47;146609;611;45020;-71
2022/08/16 04:33:36;;;;;;;;;7.50;7.50;;;;;24.30;55.60;100510.69;146602;628;45915;-71
2022/08/16 04:36:34;;;;;;;;;7.00;6.25;;;;;24.31;56.72;100524.81;146603;591;46020;-71
2022/08/16 04:39:34;;;;;;;;;7.00;5.75;;;;;24.36;55.99;100536.22;146602;660;45915;-72
2022/08/16 04:42:30;;;;;;;;;7.00;7.00;;;;;24.53;56.20;100537.00;146606;569;45020;-72
2022/08/16 04:45:27;;;;;;;;;6.75;6.25;;;;;24.85;55.92;100546.41;146601;573;46013;-73
2022/08/16 04:48:34;;;;;;;;;9.25;8.75;;;;;25.20;54.40;100545.19;146607;673;45020;-75
2022/08/16 04:51:32;;;;;;;;;7.50;7.50;;;;;25.62;54.54;100550.88;146602;683;45914;-74
2022/08/16 04:54:40;;;;;;;;;;;;;;;;;;;;;
2022/08/16 04:57:55;;;;;;;;;10.25;8.00;;;;;25.31;51.83;100376.97;146599;653;46012;-71
2022/08/16 05:01:12;;;;;;;;;;;;;;;;;;;;;
2022/08/16 05:04:10;;;;;;;;;9.25;8.00;;;;;26.71;51.48;100540.34;146602;591;46012;-72
2022/08/16 05:07:03;;;;;;;;;8.75;7.00;;;;;26.89;51.65;100544.47;146605;591;45020;-74
2022/08/16 05:10:03;;;;;;;;;7.00;7.00;;;;;27.10;51.40;100556.47;146609;569;45914;-74
2022/08/16 05:12:57;;;;;;;;;13.00;11.00;;;;;27.31;51.39;100559.63;146615;577;45020;-75
2022/08/16 05:15:59;;;;;;;;;10.75;8.50;;;;;27.53;49.20;100552.94;146610;614;45912;-71
2022/08/16 05:18:58;;;;;;;;;14.00;13.25;;;;;27.65;48.08;100554.47;146616;626;45020;-71
2022/08/16 05:21:54;;;;;;;;;12.75;12.25;;;;;27.73;49.26;100567.66;146612;583;45912;-74
2022/08/16 05:24:53;;;;;;;;;9.25;9.25;;;;;27.88;49.60;100561.97;146612;607;46010;-75
2022/08/16 05:27:51;;;;;;;;;11.00;11.00;;;;;28.07;49.63;100563.34;146608;611;45912;-75
2022/08/16 05:30:51;;;;;;;;;10.50;10.50;;;;;28.26;48.45;100561.09;146615;731;46010;-70
2022/08/16 05:33:43;;;;;;;;;9.00;8.25;;;;;28.39;47.23;100564.34;146610;662;45915;-70
2022/08/16 05:36:37;;;;;;;;;9.00;7.75;;;;;28.45;48.70;100563.34;146613;567;45020;-69
2022/08/16 05:39:43;;;;;;;;;8.75;8.75;;;;;28.58;46.29;100563.91;146612;698;45915;-71
2022/08/16 05:42:38;;;;;;;;;9.25;9.25;;;;;28.68;46.81;100560.09;146616;586;46014;-71
2022/08/16 05:45:44;;;;;;;;;12.00;10.25;;;;;28.68;46.77;100570.75;146612;704;45915;-71
2022/08/16 05:48:47;;;;;;;;;9.00;9.00;;;;;28.72;46.75;100576.00;146618;644;45020;-73
2022/08/16 05:51:40;;;;;;;;;7.50;7.25;;;;;28.83;47.41;100569.50;146608;686;45914;-71
2022/08/16 05:54:34;;;;;;;;;11.50;10.50;;;;;28.96;46.60;100577.09;146614;576;46014;-71
2022/08/16 05:57:49;;;;;;;;;;;;;;;;;;;;;
2022/08/16 06:00:50;;;;;;;;;10.75;9.00;;;;;29.33;46.87;100561.91;146617;625;46008;-70
2022/08/16 06:03:51;;;;;;;;;12.25;10.50;;;;;29.51;45.67;100571.19;146613;627;45914;-71
2022/08/16 06:06:51;;;;;;;;;8.50;8.50;;;;;29.65;46.23;100577.88;146617;577;45020;-72
2022/08/16 06:10:05;;;;;;;;;11.00;10.50;;;;;29.84;46.06;100571.97;146632;634;45915;-72
2022/08/16 06:13:02;;;;;;;;;8.75;8.50;;;;;30.02;44.93;100568.72;146630;575;45015;-74
2022/08/16 06:15:57;;;;;;;;;12.00;11.75;;;;;30.11;45.16;100570.25;146629;572;45914;-73
2022/08/16 06:19:00;;;;;;;;;11.25;10.25;;;;;30.18;44.51;100571.78;146629;711;45915;-72
2022/08/16 06:22:04;;;;;;;;;11.50;11.00;;;;;30.14;44.39;100565.66;146630;574;45013;-71
2022/08/16 06:24:59;;;;;;;;;12.25;11.00;;;;;30.11;44.74;100570.25;146629;572;44020;-71
2022/08/16 06:27:54;;;;;;;;;10.00;8.50;;;;;30.18;45.61;100558.41;146630;582;45012;-71
2022/08/16 06:31:05;;;;;;;;;13.75;11.00;;;;;30.29;45.06;100567.00;146630;566;45914;-73
2022/08/16 06:34:00;;;;;;;;;9.75;9.50;;;;;30.32;46.47;100572.25;146629;580;45914;-69
2022/08/16 06:36:57;;;;;;;;;9.00;9.00;;;;;30.38;45.22;100569.37;146632;617;44871;-67
2022/08/16 06:39:52;;;;;;;;;10.50;10.00;;;;;30.51;44.21;100569.84;146633;578;45915;-67
2022/08/16 06:42:53;;;;;;;;;5.00;5.00;;;;;30.66;44.22;100573.81;146635;633;44020;-68
2022/08/16 06:45:54;;;;;;;;;9.25;9.25;;;;;30.83;44.83;100565.22;146630;590;45915;-67
2022/08/16 06:48:51;;;;;;;;;11.75;11.75;;;;;31.02;42.62;100571.66;146633;571;45010;-68
2022/08/16 06:51:53;;;;;;;;;9.50;9.50;;;;;31.14;44.54;100561.44;146628;590;45914;-68
2022/08/16 06:55:04;;;;;;;;;9.75;9.00;;;;;30.86;43.56;100481.25;146632;632;45010;-68
2022/08/16 06:58:02;;;;;;;;;11.25;11.00;;;;;31.41;43.02;100559.59;146628;594;45914;-69
2022/08/16 07:01:00;;;;;;;;;9.50;9.25;;;;;31.43;42.02;100561.25;146630;619;44021;-69
2022/08/16 07:04:13;;;;;;;;;11.25;10.75;;;;;31.47;42.44;100545.97;146627;569;45914;-69
2022/08/16 07:07:14;;;;;;;;;9.00;7.75;;;;;31.58;42.31;100543.72;146629;575;45011;-68
2022/08/16 07:10:19;;;;;;;;;9.50;9.00;;;;;30.86;42.97;100401.81;146602;613;45913;-67
2022/08/16 07:13:14;;;;;;;;;11.75;10.00;;;;;31.80;41.30;100534.84;146606;617;46010;-67
2022/08/16 07:16:32;;;;;;;;;8.00;7.00;;;;;31.06;42.62;100391.22;146602;563;45915;-67
2022/08/16 07:19:41;;;;;;;;;8.00;7.50;;;;;31.21;42.62;100384.34;146604;573;45020;-68
2022/08/16 07:22:46;;;;;;;;;10.00;10.00;;;;;32.16;40.74;100533.38;146602;627;45915;-67
2022/08/16 07:25:42;;;;;;;;;10.25;10.00;;;;;32.29;40.42;100527.50;146608;569;45020;-69
2022/08/16 07:28:44;;;;;;;;;9.00;9.00;;;;;32.37;41.79;100538.81;146601;688;45914;-68
2022/08/16 07:31:40;;;;;;;;;10.00;10.00;;;;;32.42;40.15;100542.16;146606;564;45021;-68
2022/08/16 07:34:47;;;;;;;;;7.50;7.50;;;;;32.51;40.14;100536.41;146600;660;46010;-67
2022/08/16 07:38:08;;;;;;;;;11.00;9.50;;;;;32.53;41.06;100542.59;146603;594;46014;-67
2022/08/16 07:41:05;;;;;;;;;9.00;9.00;;;;;32.60;40.36;100543.22;146603;644;45912;-69
2022/08/16 07:44:10;;;;;;;;;8.00;8.00;;;;;32.64;39.88;100540.31;146608;686;45021;-68
2022/08/16 07:47:10;;;;;;;;;10.00;8.50;;;;;32.70;40.17;100541.00;146599;563;47017;-68
2022/08/16 07:50:16;;;;;;;;;6.25;6.25;;;;;32.76;39.69;100548.78;146607;664;45021;-68
2022/08/16 07:53:17;;;;;;;;;10.00;10.00;;;;;32.81;39.38;100552.16;146601;644;46012;-68
2022/08/16 07:56:20;;;;;;;;;11.50;10.00;;;;;32.83;40.07;100552.94;146605;627;45045;-68
2022/08/16 07:59:17;;;;;;;;;3.25;3.25;;;;;32.90;40.36;100549.06;146603;589;45913;-67
2022/08/16 08:02:12;;;;;;;;;9.75;8.50;;;;;33.01;39.37;100549.47;146608;700;45020;-68
2022/08/16 08:05:13;;;;;;;;;8.00;7.00;;;;;33.09;39.81;100550.00;146603;580;45913;-69
2022/08/16 08:08:09;;;;;;;;;8.50;8.00;;;;;33.17;39.94;100552.34;146604;703;45021;-69
2022/08/16 08:11:07;;;;;;;;;9.25;9.25;;;;;33.21;40.29;100551.28;146604;590;45914;-70
2022/08/16 08:14:02;;;;;;;;;7.25;7.00;;;;;33.29;38.65;100550.91;146604;598;47010;-69
2022/08/16 08:17:06;;;;;;;;;8.00;8.00;;;;;33.38;39.07;100545.13;146602;579;46913;-69
2022/08/16 08:19:58;;;;;;;;;8.75;8.50;;;;;33.58;39.34;100538.81;146606;587;45021;-69
2022/08/16 08:22:52;;;;;;;;;12.00;9.25;;;;;33.79;39.38;100537.81;146602;624;45915;-69
2022/08/16 08:25:47;;;;;;;;;7.25;7.25;;;;;33.91;38.84;100533.66;146607;672;45020;-70
2022/08/16 08:28:50;;;;;;;;;10.75;9.25;;;;;34.01;39.11;100524.19;146601;653;45915;-78
2022/08/16 08:31:51;;;;;;;;;9.50;8.75;;;;;34.06;38.01;100532.06;146606;640;45020;-76
2022/08/16 08:34:46;;;;;;;;;9.00;8.75;;;;;34.12;37.50;100529.06;146602;577;45914;-78
2022/08/16 08:37:44;;;;;;;;;11.00;10.00;;;;;34.17;38.80;100529.69;146605;628;45021;-76
2022/08/16 08:40:44;;;;;;;;;11.25;9.25;;;;;34.14;39.19;100528.97;146602;570;45915;-77
2022/08/16 08:43:41;;;;;;;;;9.75;9.75;;;;;34.04;36.95;100533.94;146606;581;46010;-75
2022/08/16 08:46:41;;;;;;;;;10.50;9.50;;;;;33.94;39.40;100528.13;146603;674;45914;-76
2022/08/16 08:49:39;;;;;;;;;9.25;9.25;;;;;33.96;37.87;100526.25;146606;581;45021;-75
2022/08/16 08:52:38;;;;;;;;;9.50;9.50;;;;;34.03;38.08;100524.16;146603;564;45914;-75
2022/08/16 08:55:35;;;;;;;;;7.50;6.25;;;;;34.16;37.40;100519.03;146607;564;45020;-75
2022/08/16 08:58:40;;;;;;;;;6.25;6.25;;;;;34.38;37.43;100514.28;146603;569;45914;-77
2022/08/16 09:01:37;;;;;;;;;9.75;9.75;;;;;34.54;37.31;100510.84;146606;625;45020;-75
2022/08/16 09:04:31;;;;;;;;;6.00;6.00;;;;;34.63;36.23;100508.53;146603;707;45915;-77
2022/08/16 09:07:31;;;;;;;;;8.50;8.25;;;;;34.66;35.82;100510.22;146605;569;45021;-75
2022/08/16 09:10:32;;;;;;;;;7.25;6.25;;;;;34.71;36.75;100510.84;146602;569;46012;-75
2022/08/16 09:13:33;;;;;;;;;7.00;7.00;;;;;34.90;35.63;100508.03;146607;654;45021;-76
2022/08/16 09:16:38;;;;;;;;;8.25;7.50;;;;;35.13;34.48;100509.53;146603;577;45915;-75
2022/08/16 09:19:30;;;;;;;;;8.50;7.50;;;;;35.34;35.51;100505.66;146607;682;45021;-75
2022/08/16 09:22:23;;;;;;;;;5.75;5.75;;;;;35.44;36.74;100510.53;146599;585;46012;-75
2022/08/16 09:25:17;;;;;;;;;9.75;9.75;;;;;35.47;38.61;100508.53;146606;596;45020;-75
2022/08/16 09:28:13;;;;;;;;;11.00;10.50;;;;;35.45;38.70;100515.81;146600;653;46012;-75
2022/08/16 09:31:08;;;;;;;;;10.00;10.00;;;;;35.34;39.02;100512.88;146606;660;45020;-75
2022/08/16 09:34:13;;;;;;;;;9.50;9.25;;;;;35.22;38.69;100502.75;146601;577;46012;-77
2022/08/16 09:37:05;;;;;;;;;9.00;7.75;;;;;35.15;37.08;100504.94;146605;605;45021;-76
2022/08/16 09:40:01;;;;;;;;;7.00;7.00;;;;;35.11;38.48;100501.53;146603;637;45914;-75
2022/08/16 09:42:58;;;;;;;;;9.00;8.50;;;;;35.16;37.65;100494.06;146607;599;45021;-76
2022/08/16 09:45:51;;;;;;;;;9.75;8.75;;;;;35.37;37.70;100501.91;146602;655;45914;-76
2022/08/16 09:48:46;;;;;;;;;8.00;8.00;;;;;35.51;37.97;100503.81;146606;579;46010;-76
2022/08/16 09:51:40;;;;;;;;;10.25;9.25;;;;;35.68;36.96;100505.63;146603;632;45915;-76
2022/08/16 09:54:32;;;;;;;;;7.75;7.75;;;;;35.73;36.47;100490.88;146606;570;46010;-76
2022/08/16 09:57:24;;;;;;;;;10.00;10.00;;;;;35.75;37.62;100494.37;146600;574;46914;-75
2022/08/16 10:00:29;;;;;;;;;11.50;9.00;;;;;35.80;35.01;100500.41;146606;566;45020;-75
2022/08/16 10:03:24;;;;;;;;;11.50;9.25;;;;;35.83;37.84;100505.63;146597;686;46010;-76
2022/08/16 10:06:20;;;;;;;;;8.25;8.25;;;;;35.78;36.64;100505.00;146604;628;45021;-79
2022/08/16 10:09:31;;;;;;;;;6.50;6.50;;;;;35.61;37.82;100502.41;146602;580;46012;-76
2022/08/16 10:15:44;;;;;;;;;6.50;6.50;;;;;35.52;39.02;100492.97;146602;613;45911;-73
2022/08/16 10:18:39;;;;;;;;;9.00;7.00;;;;;35.47;38.42;100499.56;146606;658;45021;-74
2022/08/16 10:21:35;;;;;;;;;7.50;6.75;;;;;35.34;37.21;100489.47;146602;564;46014;-74
2022/08/16 10:24:36;;;;;;;;;9.00;8.75;;;;;35.30;37.97;100495.13;146606;624;45020;-76
2022/08/16 10:27:30;;;;;;;;;6.50;6.50;;;;;35.34;36.62;100491.31;146603;654;45914;-74
2022/08/16 10:30:24;;;;;;;;;7.75;7.75;;;;;35.49;37.55;100493.16;146609;616;45020;-77
2022/08/16 10:33:20;;;;;;;;;7.00;7.00;;;;;35.67;36.35;100493.06;146602;568;45913;-77
2022/08/16 10:36:19;;;;;;;;;9.00;8.00;;;;;35.87;36.07;100490.12;146605;570;45021;-76
2022/08/16 10:39:15;;;;;;;;;6.75;5.25;;;;;36.12;35.75;100488.72;146603;569;45912;-75
2022/08/16 10:42:21;;;;;;;;;8.50;8.25;;;;;36.34;34.38;100482.91;146607;602;45021;-75
2022/08/16 10:45:19;;;;;;;;;8.25;8.00;;;;;36.46;34.44;100480.34;146602;614;45911;-76
2022/08/16 10:48:30;;;;;;;;;6.50;4.75;;;;;36.58;33.94;100486.00;146607;637;45021;-76
2022/08/16 10:51:30;;;;;;;;;6.75;6.75;;;;;36.60;34.70;100489.44;146603;674;45911;-76
2022/08/16 10:54:26;;;;;;;;;9.00;9.00;;;;;36.60;36.28;100492.16;146606;660;46010;-75
2022/08/16 10:57:21;;;;;;;;;7.75;6.00;;;;;36.51;37.71;100491.75;146604;662;45913;-78
2022/08/16 11:00:22;;;;;;;;;7.50;7.50;;;;;36.40;37.48;100499.59;146607;566;45020;-76
2022/08/16 11:03:14;;;;;;;;;6.00;6.00;;;;;36.39;38.40;100497.87;146602;618;45914;-76
2022/08/16 11:06:14;;;;;;;;;5.75;5.75;;;;;36.31;37.90;100500.16;146600;630;46915;-77
2022/08/16 11:09:13;;;;;;;;;12.75;9.75;;;;;36.10;37.60;100494.19;146606;569;46012;-75
2022/08/16 11:12:11;;;;;;;;;8.50;8.50;;;;;35.97;37.98;100493.16;146616;649;46010;-75
2022/08/16 11:15:11;;;;;;;;;6.25;6.25;;;;;36.00;37.38;100488.44;146607;616;47914;-74
2022/08/16 11:18:16;;;;;;;;;8.50;8.00;;;;;36.14;37.68;100498.47;146617;583;45021;-76
2022/08/16 11:21:09;;;;;;;;;6.25;6.25;;;;;36.17;38.29;100492.88;146610;570;45915;-75
2022/08/16 11:24:17;;;;;;;;;10.50;9.25;;;;;36.10;37.36;100486.09;146618;657;45020;-75
2022/08/16 11:27:18;;;;;;;;;9.25;8.50;;;;;35.99;36.47;100477.75;146612;607;46012;-77
2022/08/16 11:30:29;;;;;;;;;8.00;8.00;;;;;35.93;36.38;100483.50;146615;670;45020;-76
2022/08/16 11:33:33;;;;;;;;;10.25;9.25;;;;;35.80;35.59;100480.66;146608;638;45915;-78
2022/08/16 11:36:43;;;;;;;;;;;;;;;;;;;;;
2022/08/16 11:39:38;;;;;;;;;8.25;7.00;;;;;35.85;35.87;100475.84;146610;635;45913;-75
2022/08/16 11:42:44;;;;;;;;;9.50;9.00;;;;;35.88;35.20;100480.19;146618;572;45021;-77
2022/08/16 11:45:46;;;;;;;;;7.25;7.25;;;;;35.63;34.01;100479.75;146610;570;45914;-77
2022/08/16 11:48:48;;;;;;;;;9.00;7.50;;;;;35.44;35.16;100468.25;146617;564;45021;-78
2022/08/16 11:51:50;;;;;;;;;7.25;7.25;;;;;35.37;35.00;100465.03;146606;656;46014;-78
2022/08/16 11:54:45;;;;;;;;;7.25;6.75;;;;;35.32;35.11;100472.50;146614;665;45020;-79
2022/08/16 11:57:38;;;;;;;;;9.25;7.50;;;;;35.22;34.54;100465.03;146610;687;46012;-76
2022/08/16 12:00:35;;;;;;;;;7.00;7.00;;;;;35.05;35.37;100463.25;146616;632;45020;-76
2022/08/16 12:03:46;;;;;;;;;7.75;7.75;;;;;34.77;35.54;100467.44;146610;618;45915;-76
2022/08/16 12:06:50;;;;;;;;;7.75;7.50;;;;;34.53;34.12;100464.22;146615;679;45020;-76
2022/08/16 12:09:43;;;;;;;;;9.50;7.75;;;;;34.57;34.13;100462.22;146630;716;45914;-80
2022/08/16 12:12:52;;;;;;;;;9.00;7.50;;;;;34.65;35.49;100466.25;146632;606;45010;-77
2022/08/16 12:15:56;;;;;;;;;8.50;7.50;;;;;33.93;35.73;100311.22;146631;616;45012;-76
2022/08/16 12:18:50;;;;;;;;;6.50;6.50;;;;;35.01;35.73;100457.13;146630;581;44021;-77
2022/08/16 12:21:46;;;;;;;;;6.50;6.50;;;;;35.13;34.49;100450.22;146631;625;45914;-77
2022/08/16 12:24:43;;;;;;;;;7.50;7.00;;;;;35.26;36.00;100442.34;146632;603;44020;-74
2022/08/16 12:27:43;;;;;;;;;5.25;5.25;;;;;35.40;32.49;100443.31;146626;569;45013;-76
2022/08/16 12:30:46;;;;;;;;;7.25;7.25;;;;;35.47;35.05;100441.13;146627;573;46010;-75
2022/08/16 12:34:02;;;;;;;;;;;;;;;;;;;;;
2022/08/16 12:36:58;;;;;;;;;7.25;6.50;;;;;35.34;33.29;100442.78;146632;662;45010;-75
2022/08/16 12:40:06;;;;;;;;;;;;;;;;;;;;;
2022/08/16 12:43:01;;;;;;;;;6.00;5.25;;;;;34.84;32.02;100427.56;146631;573;45010;-77
2022/08/16 12:45:59;;;;;;;;;7.00;7.00;;;;;34.49;32.61;100431.16;146629;620;45014;-78
2022/08/16 12:48:58;;;;;;;;;6.75;4.75;;;;;34.21;33.96;100420.97;146632;564;45010;-75
2022/08/16 12:51:59;;;;;;;;;5.00;5.00;;;;;34.12;32.45;100420.59;146628;644;45912;-76
2022/08/16 12:55:03;;;;;;;;;7.00;6.00;;;;;34.13;34.74;100422.31;146631;700;44021;-73
2022/08/16 12:58:20;;;;;;;;;6.25;6.25;;;;;33.32;34.25;100284.72;146630;663;45913;-78
2022/08/16 13:01:46;;;;;;;;;6.00;6.00;;;;;33.23;35.59;100275.31;146632;687;45010;-76
2022/08/16 13:04:45;;;;;;;;;5.50;5.50;;;;;33.90;34.10;100410.88;146629;569;44913;-73
2022/08/16 13:07:51;;;;;;;;;5.75;5.75;;;;;33.63;33.41;100412.25;146625;674;45044;-73
2022/08/16 13:10:47;;;;;;;;;5.75;5.75;;;;;33.39;33.78;100400.84;146602;577;46012;-73
2022/08/16 13:14:01;;;;;;;;;5.50;5.25;;;;;33.17;34.87;100407.25;146606;624;45020;-72
2022/08/16 13:17:07;;;;;;;;;8.00;6.75;;;;;33.01;34.99;100400.88;146603;669;45914;-70
2022/08/16 13:20:02;;;;;;;;;7.75;7.00;;;;;32.94;34.85;100397.56;146605;670;45021;-73
2022/08/16 13:23:21;;;;;;;;;5.00;5.00;;;;;32.99;33.85;100389.31;146604;579;45914;-70
2022/08/16 13:26:16;;;;;;;;;8.00;6.75;;;;;32.88;34.44;100393.34;146609;618;45021;-69
2022/08/16 13:29:14;;;;;;;;;4.75;4.25;;;;;32.96;34.69;100384.97;146603;563;45912;-70
2022/08/16 13:32:17;;;;;;;;;7.00;6.50;;;;;32.98;33.97;100385.78;146605;693;45917;-71
2022/08/16 13:35:21;;;;;;;;;6.50;6.50;;;;;33.08;34.84;100381.69;146603;638;45913;-72
2022/08/16 13:38:19;;;;;;;;;7.50;7.50;;;;;33.14;35.19;100387.72;146607;629;46014;-71
2022/08/16 13:41:18;;;;;;;;;5.75;5.75;;;;;32.90;33.68;100369.13;146602;589;46013;-72
2022/08/16 13:44:27;;;;;;;;;;;;;;;;;;;;;
2022/08/16 13:47:23;;;;;;;;;8.25;7.50;;;;;32.70;35.42;100378.09;146603;690;45910;-70
2022/08/16 13:50:19;;;;;;;;;10.25;7.75;;;;;32.87;35.75;100380.03;146607;628;45026;-72
2022/08/16 13:53:14;;;;;;;;;5.75;5.75;;;;;32.95;36.77;100388.56;146602;647;45912;-71
2022/08/16 13:56:18;;;;;;;;;7.00;7.00;;;;;32.99;37.53;100376.78;146604;696;45021;-70
2022/08/16 13:59:25;;;;;;;;;8.75;8.75;;;;;33.03;37.35;100378.38;146600;709;46014;-72
2022/08/16 14:02:26;;;;;;;;;7.00;7.00;;;;;33.18;37.96;100370.50;146605;564;45021;-71
2022/08/16 14:05:20;;;;;;;;;9.25;9.25;;;;;33.30;38.48;100369.91;146601;671;46014;-70
2022/08/16 14:08:23;;;;;;;;;7.50;6.75;;;;;32.48;39.82;100241.34;146603;594;46020;-72
2022/08/16 14:11:20;;;;;;;;;7.50;7.50;;;;;33.23;39.85;100363.13;146602;625;45912;-73
2022/08/16 14:14:15;;;;;;;;;7.50;7.50;;;;;33.34;39.51;100358.97;146606;609;45020;-73
2022/08/16 14:17:09;;;;;;;;;8.00;7.50;;;;;33.49;40.33;100367.19;146603;600;45913;-73
2022/08/16 14:20:01;;;;;;;;;7.25;6.75;;;;;33.42;40.69;100360.38;146607;578;45024;-73